Terminal Aerodrome Forecast
Issued by NWS Caribou, ME

Home | Current Version | Previous Version | Text Only | Print | Product List | Glossary On
Versions: 1 2 3 4 5 6 7 8 9 10 11 12 13 14 15 16 17
000
FTUS41 KCAR 312358
TAFBGR
TAF
KBGR 312358Z 0100/0124 31015G28KT 6SM BLSN SCT090
     FM011100 28007KT P6SM FEW250
     FM011400 31012G20KT P6SM SKC=

USA.gov is the U.S. government's official web portal to all federal, state and local government web resources and services.